Time;durP1;ratioP1;P1;durP2;ratioP2;P2;SDS_P1;SDS_P2;PMS_P1;PMS_P2;Temp;Humidity;BMP_temperature;BMP_pressure;BME280_temperature;BME280_humidity;BME280_pressure;Samples;Min_cycle;Max_cycle;Signal;HPM_P1;HPM_P2
2024/02/29 00:02:11;;;;;;;18.85;7.38;;;5.60;1.00;;;;;;5075307;28;20433;-52
2024/02/29 00:04:37;;;;;;;15.73;7.30;;;5.60;1.00;;;;;;5075482;28;20477;-54
2024/02/29 00:07:05;;;;;;;16.85;7.88;;;5.50;1.00;;;;;;5075000;28;20423;-54
2024/02/29 00:09:33;;;;;;;16.25;7.50;;;5.50;1.00;;;;;;5075153;28;20506;-53
2024/02/29 00:12:00;;;;;;;14.48;7.32;;;5.40;1.00;;;;;;5076307;28;20424;-53
2024/02/29 00:14:27;;;;;;;15.50;8.70;;;5.40;1.00;;;;;;5075551;28;20770;-54
2024/02/29 00:16:54;;;;;;;16.85;7.78;;;5.30;1.00;;;;;;5079138;28;20709;-53
2024/02/29 00:19:21;;;;;;;14.38;7.55;;;5.30;1.00;;;;;;5079000;28;20514;-54
2024/02/29 00:21:47;;;;;;;16.48;8.38;;;5.40;1.00;;;;;;5079928;28;20709;-54
2024/02/29 00:24:14;;;;;;;14.50;7.90;;;5.40;1.00;;;;;;5079235;28;20518;-54
2024/02/29 00:26:43;;;;;;;18.08;8.50;;;5.40;1.00;;;;;;5079042;28;20496;-54
2024/02/29 00:29:10;;;;;;;14.13;7.35;;;5.40;1.00;;;;;;5078699;28;20469;-53
2024/02/29 00:31:37;;;;;;;15.70;8.07;;;5.40;1.00;;;;;;5078818;28;20554;-55
2024/02/29 00:34:03;;;;;;;15.25;7.55;;;5.50;1.00;;;;;;5079037;28;20411;-50
2024/02/29 00:36:30;;;;;;;15.43;8.13;;;5.50;1.00;;;;;;5078907;28;20522;-53
2024/02/29 00:38:57;;;;;;;17.47;8.73;;;5.50;1.00;;;;;;5078471;28;21013;-50
2024/02/29 00:41:24;;;;;;;13.65;7.35;;;5.50;1.00;;;;;;5078941;28;20760;-54
2024/02/29 00:43:52;;;;;;;15.90;8.10;;;5.40;1.00;;;;;;5078892;28;20458;-52
2024/02/29 00:46:19;;;;;;;15.80;8.90;;;5.50;1.00;;;;;;5078513;28;20419;-54
2024/02/29 00:48:46;;;;;;;19.50;8.97;;;5.50;1.00;;;;;;5079080;28;20739;-54
2024/02/29 00:51:13;;;;;;;16.35;8.80;;;5.50;1.00;;;;;;5078091;28;20455;-54
2024/02/29 00:53:40;;;;;;;19.02;9.15;;;5.40;1.00;;;;;;5078362;28;20513;-50
2024/02/29 00:56:08;;;;;;;16.63;8.85;;;5.30;1.00;;;;;;5078612;28;20513;-47
2024/02/29 00:58:35;;;;;;;18.60;9.77;;;5.30;1.00;;;;;;5077970;28;20535;-51
2024/02/29 01:01:04;;;;;;;17.10;9.02;;;5.20;1.00;;;;;;5069129;28;20502;-53
2024/02/29 01:03:30;;;;;;;18.90;8.95;;;5.20;1.00;;;;;;5078023;28;20455;-51
2024/02/29 01:05:57;;;;;;;19.20;9.32;;;5.20;1.00;;;;;;5077867;28;20423;-53
2024/02/29 01:08:24;;;;;;;18.80;9.55;;;5.20;1.00;;;;;;5078005;28;20806;-52
2024/02/29 01:10:51;;;;;;;17.57;9.70;;;5.20;1.00;;;;;;5076994;28;20416;-50
2024/02/29 01:13:18;;;;;;;16.88;9.85;;;5.20;3.20;;;;;;5076563;28;20439;-54
2024/02/29 01:15:46;;;;;;;17.88;8.90;;;5.10;2.90;;;;;;5074473;28;20423;-51
2024/02/29 01:18:14;;;;;;;17.58;8.50;;;5.10;2.20;;;;;;5076802;28;20431;-51
2024/02/29 01:20:41;;;;;;;14.43;7.97;;;5.00;13.80;;;;;;5077218;28;20760;-52
2024/02/29 01:23:08;;;;;;;18.63;9.05;;;5.00;23.60;;;;;;5077021;28;20536;-54
2024/02/29 01:25:35;;;;;;;14.75;8.82;;;4.90;22.60;;;;;;5077151;28;20457;-53
2024/02/29 01:28:01;;;;;;;14.43;8.50;;;4.90;23.40;;;;;;5078222;28;20786;-53
2024/02/29 01:30:28;;;;;;;20.10;8.60;;;4.90;39.60;;;;;;5078212;28;20504;-53
2024/02/29 01:32:55;;;;;;;19.10;9.77;;;4.90;53.60;;;;;;5077858;28;20526;-51
2024/02/29 01:35:24;;;;;;;20.90;10.15;;;4.90;54.20;;;;;;5078419;28;20650;-54
2024/02/29 01:37:50;;;;;;;19.58;10.43;;;4.90;56.40;;;;;;5075541;28;20761;-51
2024/02/29 01:40:18;;;;;;;18.38;9.38;;;4.90;50.80;;;;;;5072331;28;20511;-50
2024/02/29 01:42:45;;;;;;;15.02;8.80;;;4.90;45.10;;;;;;5077957;28;20420;-51
2024/02/29 01:45:13;;;;;;;15.23;8.25;;;4.90;56.30;;;;;;5078024;28;20550;-53
2024/02/29 01:47:41;;;;;;;19.23;10.05;;;4.90;55.00;;;;;;5077944;28;20530;-51
2024/02/29 01:50:10;;;;;;;16.83;8.73;;;4.90;46.80;;;;;;5077783;28;20902;-51
2024/02/29 01:52:40;;;;;;;17.75;8.68;;;4.90;42.60;;;;;;5076932;28;20455;-53
2024/02/29 01:55:10;;;;;;;17.58;8.70;;;4.80;35.40;;;;;;5070736;28;20839;-51
2024/02/29 01:57:37;;;;;;;17.47;8.87;;;4.80;34.40;;;;;;5077604;28;20708;-52
2024/02/29 02:00:05;;;;;;;16.80;8.98;;;4.80;28.60;;;;;;5076659;28;20435;-50
2024/02/29 02:02:32;;;;;;;16.15;8.93;;;4.70;19.40;;;;;;5076425;28;20524;-52
2024/02/29 02:04:59;;;;;;;16.37;8.13;;;4.60;23.10;;;;;;5073183;28;20570;-50
2024/02/29 02:07:27;;;;;;;19.80;9.07;;;4.60;25.90;;;;;;5072310;28;20464;-51
2024/02/29 02:09:56;;;;;;;18.77;9.48;;;4.50;38.50;;;;;;5076949;28;20765;-53
2024/02/29 02:12:23;;;;;;;18.00;8.95;;;4.40;45.40;;;;;;5077491;28;20427;-54
2024/02/29 02:14:50;;;;;;;15.98;8.07;;;4.40;49.30;;;;;;5077243;28;20856;-54
2024/02/29 02:17:17;;;;;;;16.33;8.23;;;4.40;66.40;;;;;;5076517;28;20458;-50
2024/02/29 02:19:45;;;;;;;17.73;9.17;;;4.40;45.60;;;;;;5075638;28;20716;-54
2024/02/29 02:22:13;;;;;;;12.85;7.43;;;4.40;38.50;;;;;;5075513;28;20519;-54
2024/02/29 02:24:40;;;;;;;15.27;6.97;;;4.30;26.90;;;;;;5076799;28;20441;-51
2024/02/29 02:27:07;;;;;;;19.10;8.88;;;4.30;27.50;;;;;;5076707;28;20451;-53
2024/02/29 02:29:34;;;;;;;16.05;8.00;;;4.30;33.30;;;;;;5077005;28;20448;-52
2024/02/29 02:32:01;;;;;;;16.73;8.07;;;4.40;30.50;;;;;;5076462;28;20778;-52
2024/02/29 02:34:28;;;;;;;15.18;7.82;;;4.40;29.70;;;;;;5076515;28;20419;-55
2024/02/29 02:36:55;;;;;;;16.98;7.88;;;4.50;19.50;;;;;;5076395;28;20518;-51
2024/02/29 02:39:23;;;;;;;19.20;8.52;;;4.50;1.00;;;;;;5076191;28;20477;-52
2024/02/29 02:41:50;;;;;;;18.38;8.52;;;4.50;1.00;;;;;;5075266;28;20423;-54
2024/02/29 02:44:17;;;;;;;17.17;8.50;;;4.40;6.00;;;;;;5076310;28;20460;-52
2024/02/29 02:46:44;;;;;;;17.58;8.40;;;4.40;18.20;;;;;;5076386;28;20411;-50
2024/02/29 02:49:11;;;;;;;15.00;8.27;;;4.40;19.20;;;;;;5076237;28;20884;-49
2024/02/29 02:51:38;;;;;;;16.60;8.32;;;4.50;26.60;;;;;;5076773;28;20522;-53
2024/02/29 02:54:04;;;;;;;20.65;10.02;;;4.50;10.00;;;;;;5076536;28;20513;-53
2024/02/29 02:56:33;;;;;;;16.00;8.40;;;4.40;24.20;;;;;;5075988;28;20518;-51
2024/02/29 02:59:00;;;;;;;14.40;8.17;;;4.30;40.20;;;;;;5075733;28;20447;-49
2024/02/29 03:01:27;;;;;;;19.17;10.15;;;4.20;66.70;;;;;;5076303;28;20466;-52
2024/02/29 03:03:55;;;;;;;21.80;10.23;;;4.20;84.80;;;;;;5076507;28;20490;-50
2024/02/29 03:06:21;;;;;;;20.05;9.55;;;4.20;80.80;;;;;;5076258;28;20438;-48
2024/02/29 03:08:48;;;;;;;17.13;9.48;;;4.20;89.90;;;;;;5075773;28;20463;-52
2024/02/29 03:11:15;;;;;;;21.92;9.63;;;4.30;91.00;;;;;;5075905;28;20447;-51
2024/02/29 03:13:43;;;;;;;16.20;9.07;;;4.30;73.70;;;;;;5075768;28;20772;-48
2024/02/29 03:16:10;;;;;;;21.20;9.85;;;4.40;63.80;;;;;;5076253;28;20454;-51
2024/02/29 03:18:37;;;;;;;19.17;9.57;;;4.40;31.80;;;;;;5075523;28;20514;-49
2024/02/29 03:21:06;;;;;;;17.05;8.38;;;4.40;23.70;;;;;;5076046;28;20451;-54
2024/02/29 03:23:32;;;;;;;20.42;9.25;;;4.30;11.10;;;;;;5075833;28;20437;-54
2024/02/29 03:25:59;;;;;;;15.73;8.00;;;4.20;1.00;;;;;;5076136;28;20427;-50
2024/02/29 03:28:26;;;;;;;16.65;7.35;;;4.10;1.00;;;;;;5075821;28;20451;-49
2024/02/29 03:30:55;;;;;;;15.82;8.30;;;4.10;1.00;;;;;;5075901;28;20466;-47
2024/02/29 03:33:21;;;;;;;14.03;6.83;;;4.00;1.00;;;;;;5076793;28;20732;-49
2024/02/29 03:35:48;;;;;;;17.63;8.35;;;4.00;1.00;;;;;;5076424;28;20522;-49
2024/02/29 03:38:16;;;;;;;14.77;8.18;;;4.00;1.00;;;;;;5075917;28;20514;-50
2024/02/29 03:40:43;;;;;;;17.03;8.93;;;4.00;1.00;;;;;;5076082;28;20432;-52
2024/02/29 03:43:10;;;;;;;16.27;8.40;;;4.00;1.00;;;;;;5075667;28;20502;-51
2024/02/29 03:45:37;;;;;;;18.48;8.27;;;4.00;1.00;;;;;;5060971;28;20457;-50
2024/02/29 03:48:06;;;;;;;13.43;6.83;;;4.00;1.00;;;;;;5055552;28;20515;-51
2024/02/29 03:50:33;;;;;;;17.67;9.07;;;4.00;1.00;;;;;;5054667;28;20472;-52
2024/02/29 03:53:00;;;;;;;16.83;8.27;;;4.00;1.00;;;;;;5055226;28;20508;-51
2024/02/29 03:55:27;;;;;;;16.38;8.15;;;4.00;1.00;;;;;;5055649;28;20547;-52
2024/02/29 03:57:53;;;;;;;16.35;8.02;;;4.10;1.00;;;;;;5055978;28;20531;-48
2024/02/29 04:00:20;;;;;;;18.80;9.38;;;4.10;1.00;;;;;;5054614;28;20438;-52
2024/02/29 04:02:48;;;;;;;15.32;8.60;;;4.10;1.00;;;;;;5054001;28;20452;-55
2024/02/29 04:05:16;;;;;;;18.48;9.80;;;4.10;1.00;;;;;;5052858;28;20998;-52
2024/02/29 04:07:43;;;;;;;20.67;10.20;;;4.00;1.00;;;;;;5052313;28;20463;-53
2024/02/29 04:10:11;;;;;;;14.50;8.63;;;4.00;11.50;;;;;;5067092;28;20418;-50
2024/02/29 04:12:38;;;;;;;15.85;8.25;;;4.00;26.50;;;;;;5071614;28;20927;-51
2024/02/29 04:15:06;;;;;;;19.10;9.10;;;4.10;24.40;;;;;;5073169;28;20512;-52
2024/02/29 04:17:33;;;;;;;17.90;9.50;;;4.00;20.30;;;;;;5075695;28;20802;-51
2024/02/29 04:20:00;;;;;;;20.08;9.43;;;4.00;18.70;;;;;;5075560;28;20471;-52
2024/02/29 04:22:29;;;;;;;16.57;9.00;;;4.00;11.30;;;;;;5073537;28;20422;-53
2024/02/29 04:24:56;;;;;;;20.73;9.73;;;4.00;9.60;;;;;;5072979;28;20431;-52
2024/02/29 04:27:23;;;;;;;20.67;9.95;;;4.00;24.80;;;;;;5073511;28;20455;-51
2024/02/29 04:29:50;;;;;;;18.60;9.20;;;4.00;24.10;;;;;;5073383;28;20416;-53
2024/02/29 04:32:17;;;;;;;17.77;9.50;;;4.10;48.30;;;;;;5073891;28;20526;-54
2024/02/29 04:34:44;;;;;;;23.48;10.25;;;4.20;36.60;;;;;;5073687;28;20426;-51
2024/02/29 04:37:11;;;;;;;22.95;10.90;;;4.10;39.60;;;;;;5074021;28;20477;-49
2024/02/29 04:39:40;;;;;;;19.55;11.48;;;4.10;46.00;;;;;;5073557;28;20502;-51
2024/02/29 04:42:07;;;;;;;19.23;9.88;;;4.10;78.40;;;;;;5072998;28;20466;-52
2024/02/29 04:44:34;;;;;;;22.47;10.10;;;4.00;76.20;;;;;;5072490;28;20526;-55
2024/02/29 04:47:01;;;;;;;19.70;9.10;;;3.90;72.30;;;;;;5071869;28;20514;-53
2024/02/29 04:49:27;;;;;;;19.10;9.83;;;4.00;58.50;;;;;;5072723;28;20520;-50
2024/02/29 04:51:54;;;;;;;17.02;9.20;;;3.90;44.30;;;;;;5073569;28;20493;-53
2024/02/29 04:54:21;;;;;;;21.13;10.05;;;3.80;32.80;;;;;;5074127;28;20487;-50
2024/02/29 04:56:49;;;;;;;19.33;10.45;;;3.90;55.40;;;;;;5073522;28;20470;-55
2024/02/29 04:59:16;;;;;;;19.65;9.98;;;3.90;44.90;;;;;;5074539;28;20518;-54
2024/02/29 05:01:43;;;;;;;18.60;10.73;;;4.20;70.00;;;;;;5077135;28;20447;-54
2024/02/29 05:04:10;;;;;;;20.70;10.20;;;4.10;43.80;;;;;;5079033;28;20683;-54
2024/02/29 05:06:37;;;;;;;19.33;9.10;;;4.00;34.50;;;;;;5079668;28;20466;-54
2024/02/29 05:09:06;;;;;;;22.52;10.98;;;4.00;46.50;;;;;;5079524;28;20452;-51
2024/02/29 05:11:33;;;;;;;22.08;10.70;;;3.80;46.60;;;;;;5079396;28;20891;-52
2024/02/29 05:14:01;;;;;;;22.45;10.85;;;3.70;53.70;;;;;;5079038;28;20498;-52
2024/02/29 05:16:28;;;;;;;21.70;10.27;;;3.60;55.10;;;;;;5079093;28;20411;-55
2024/02/29 05:18:55;;;;;;;14.85;9.32;;;3.60;51.40;;;;;;5079096;28;20466;-50
2024/02/29 05:21:22;;;;;;;15.63;8.60;;;3.60;56.30;;;;;;5078549;28;20463;-53
2024/02/29 05:23:49;;;;;;;19.85;9.80;;;3.60;46.00;;;;;;5078592;28;20605;-53
2024/02/29 05:26:16;;;;;;;18.60;10.97;;;3.60;44.10;;;;;;5077323;28;20768;-54
2024/02/29 05:28:43;;;;;;;22.13;10.70;;;3.60;52.70;;;;;;5077511;28;20447;-53
2024/02/29 05:31:11;;;;;;;16.25;8.57;;;3.60;36.30;;;;;;5078262;28;20498;-50
2024/02/29 05:33:40;;;;;;;17.92;9.32;;;3.60;36.10;;;;;;5078751;28;20514;-50
2024/02/29 05:36:08;;;;;;;21.73;9.95;;;3.60;37.50;;;;;;5078751;28;20434;-51
2024/02/29 05:38:34;;;;;;;19.17;9.60;;;3.50;31.60;;;;;;5078280;28;20432;-49
2024/02/29 05:41:02;;;;;;;22.10;10.35;;;3.50;36.50;;;;;;5078401;28;20522;-53
2024/02/29 05:43:29;;;;;;;19.92;10.20;;;3.60;29.90;;;;;;5078228;28;20415;-56
2024/02/29 05:45:56;;;;;;;18.30;9.45;;;3.50;23.30;;;;;;5078734;28;20541;-54
2024/02/29 05:48:24;;;;;;;17.27;9.48;;;3.60;27.20;;;;;;5078392;28;20758;-55
2024/02/29 05:50:51;;;;;;;16.88;9.80;;;3.60;22.40;;;;;;5077521;28;20519;-52
2024/02/29 05:53:18;;;;;;;19.38;8.70;;;3.60;19.90;;;;;;5085424;28;20849;-53
2024/02/29 05:55:45;;;;;;;18.08;8.88;;;3.60;19.90;;;;;;5057945;28;20500;-55
2024/02/29 05:58:12;;;;;;;14.73;7.75;;;3.50;19.30;;;;;;5063697;28;20510;-53
2024/02/29 06:00:40;;;;;;;19.40;8.43;;;3.60;20.70;;;;;;5077701;28;20526;-51
2024/02/29 06:03:07;;;;;;;18.15;10.00;;;3.70;47.10;;;;;;5067410;28;20429;-53
2024/02/29 06:05:36;;;;;;;17.63;9.07;;;3.70;32.20;;;;;;5058511;28;20497;-52
2024/02/29 06:08:04;;;;;;;18.10;8.80;;;3.70;16.90;;;;;;5056879;28;20436;-55
2024/02/29 06:10:31;;;;;;;19.30;10.93;;;3.70;26.40;;;;;;5067998;28;20419;-49
2024/02/29 06:12:58;;;;;;;19.15;10.35;;;3.70;34.00;;;;;;5076977;28;20500;-49
2024/02/29 06:15:25;;;;;;;22.80;11.43;;;3.70;39.80;;;;;;5088703;28;20475;-55
2024/02/29 06:17:52;;;;;;;17.80;9.43;;;3.70;47.30;;;;;;5096998;28;20464;-54
2024/02/29 06:20:19;;;;;;;18.38;9.57;;;3.70;44.10;;;;;;5078792;28;20471;-53
2024/02/29 06:22:47;;;;;;;19.00;10.38;;;3.80;58.20;;;;;;5078355;28;20522;-52
2024/02/29 06:25:14;;;;;;;21.52;11.18;;;3.80;56.70;;;;;;5077468;28;20861;-55
2024/02/29 06:27:41;;;;;;;17.67;9.48;;;3.80;56.80;;;;;;5076565;28;20519;-57
2024/02/29 06:30:09;;;;;;;18.88;9.57;;;3.80;58.80;;;;;;5076544;28;20450;-56
2024/02/29 06:32:36;;;;;;;19.92;9.00;;;3.80;69.80;;;;;;5077641;28;20513;-54
2024/02/29 06:35:03;;;;;;;17.35;9.45;;;3.80;70.80;;;;;;5074887;28;20539;-55
2024/02/29 06:37:30;;;;;;;20.45;10.88;;;3.70;72.30;;;;;;5072828;28;20408;-57
2024/02/29 06:39:58;;;;;;;19.33;10.20;;;3.60;76.90;;;;;;5076291;28;20435;-56
2024/02/29 06:42:25;;;;;;;17.90;10.23;;;3.50;92.20;;;;;;5078913;28;20475;-55
2024/02/29 06:44:53;;;;;;;18.20;9.50;;;3.50;93.10;;;;;;5075409;28;20492;-56
2024/02/29 06:47:19;;;;;;;19.77;10.73;;;3.60;98.00;;;;;;5075743;28;20450;-57
2024/02/29 06:49:46;;;;;;;19.67;9.20;;;3.60;98.60;;;;;;5075403;28;20484;-55
2024/02/29 06:52:13;;;;;;;19.08;10.00;;;3.70;99.90;;;;;;5076254;28;20424;-57
2024/02/29 06:54:41;;;;;;;19.58;10.80;;;3.80;96.10;;;;;;5075290;28;20427;-56
2024/02/29 06:57:09;;;;;;;16.80;9.18;;;3.90;83.30;;;;;;5075849;28;20514;-56
2024/02/29 06:59:38;;;;;;;19.20;9.57;;;3.90;65.60;;;;;;5074086;28;20576;-55
2024/02/29 07:02:06;;;;;;;22.80;10.48;;;3.90;53.90;;;;;;5075414;28;20538;-57
2024/02/29 07:04:32;;;;;;;18.20;9.30;;;3.90;48.00;;;;;;5074459;28;20485;-55
2024/02/29 07:07:03;;;;;;;18.05;9.88;;;4.00;53.30;;;;;;5076273;28;20444;-57
2024/02/29 07:09:30;;;;;;;20.35;9.63;;;4.00;47.60;;;;;;5078763;28;20518;-55
2024/02/29 07:11:58;;;;;;;17.10;9.52;;;4.00;48.00;;;;;;5083778;28;20490;-56
2024/02/29 07:14:26;;;;;;;17.42;9.35;;;4.30;43.20;;;;;;5084381;28;20518;-55
2024/02/29 07:16:53;;;;;;;19.97;10.80;;;4.40;21.10;;;;;;5085828;28;20479;-56
2024/02/29 07:19:20;;;;;;;17.70;9.65;;;4.40;3.50;;;;;;5074576;28;20512;-56
2024/02/29 07:21:47;;;;;;;16.60;8.90;;;4.30;3.70;;;;;;5074640;28;20439;-56
2024/02/29 07:24:14;;;;;;;20.50;10.45;;;4.20;11.60;;;;;;5074214;28;20526;-57
2024/02/29 07:26:41;;;;;;;17.85;9.55;;;4.20;20.00;;;;;;5074639;28;20709;-56
2024/02/29 07:29:08;;;;;;;18.83;10.60;;;4.30;37.60;;;;;;5073483;28;20426;-57
2024/02/29 07:31:42;;;;;;;18.77;9.52;;;4.40;39.60;;;;;;5074580;28;20411;-57
2024/02/29 07:34:10;;;;;;;18.10;9.57;;;4.50;31.30;;;;;;5092080;28;20418;-57
2024/02/29 07:36:38;;;;;;;21.95;10.25;;;4.40;24.50;;;;;;5093012;28;20499;-56
2024/02/29 07:39:06;;;;;;;20.10;10.57;;;4.50;25.70;;;;;;5092554;28;20428;-56
2024/02/29 07:41:33;;;;;;;19.65;10.07;;;4.50;21.10;;;;;;5092511;28;20436;-55
2024/02/29 07:44:00;;;;;;;18.58;9.77;;;4.40;33.30;;;;;;5087286;28;20519;-57
2024/02/29 07:46:27;;;;;;;21.08;10.15;;;4.40;31.60;;;;;;5074365;28;20447;-60
2024/02/29 07:48:55;;;;;;;15.63;8.52;;;4.40;29.30;;;;;;5073511;28;20519;-60
2024/02/29 07:51:22;;;;;;;20.48;9.50;;;4.40;26.50;;;;;;5074099;28;20499;-61
2024/02/29 07:53:49;;;;;;;19.15;8.90;;;4.50;22.70;;;;;;5074991;28;20837;-61
2024/02/29 07:56:18;;;;;;;17.67;10.15;;;4.50;21.40;;;;;;5075090;28;20498;-61
2024/02/29 07:58:45;;;;;;;18.85;8.75;;;4.40;24.70;;;;;;5074187;28;20690;-61
2024/02/29 08:01:12;;;;;;;22.20;10.68;;;4.40;31.10;;;;;;5075016;28;20932;-61
2024/02/29 08:03:39;;;;;;;19.95;10.25;;;4.50;32.90;;;;;;5074532;28;20494;-62
2024/02/29 08:06:06;;;;;;;18.23;8.00;;;4.50;33.50;;;;;;5074782;28;20458;-61
2024/02/29 08:08:33;;;;;;;19.27;8.77;;;4.70;28.00;;;;;;5075012;28;20675;-61
2024/02/29 08:11:00;;;;;;;18.27;9.55;;;4.70;1.00;;;;;;5073083;28;20872;-54
2024/02/29 08:13:27;;;;;;;20.63;8.50;;;4.80;4.60;;;;;;5074172;28;20408;-55
2024/02/29 08:15:54;;;;;;;21.77;10.40;;;4.80;1.00;;;;;;5074108;28;20487;-54
2024/02/29 08:18:21;;;;;;;17.37;10.10;;;4.80;1.00;;;;;;5075255;28;20515;-56
2024/02/29 08:20:48;;;;;;;20.50;10.30;;;4.90;1.00;;;;;;5074557;28;20517;-55
2024/02/29 08:23:16;;;;;;;18.77;9.20;;;4.90;1.00;;;;;;5074734;28;20432;-56
2024/02/29 08:25:43;;;;;;;17.02;9.30;;;5.00;1.00;;;;;;5074198;28;20415;-55
2024/02/29 08:28:10;;;;;;;16.52;9.30;;;5.00;1.00;;;;;;5075038;28;20485;-53
2024/02/29 08:30:36;;;;;;;15.57;7.70;;;5.10;1.00;;;;;;5075070;28;20462;-51
2024/02/29 08:33:03;;;;;;;20.20;9.80;;;5.30;1.00;;;;;;5066464;28;20459;-55
2024/02/29 08:35:30;;;;;;;17.00;9.38;;;5.30;1.00;;;;;;5071457;28;20531;-54
2024/02/29 08:37:57;;;;;;;15.80;8.27;;;5.30;1.00;;;;;;5074483;28;20435;-56
2024/02/29 08:40:25;;;;;;;15.05;8.20;;;5.40;1.00;;;;;;5076625;28;20441;-55
2024/02/29 08:42:52;;;;;;;13.98;8.07;;;5.60;1.00;;;;;;5078977;28;20892;-54
2024/02/29 08:45:19;;;;;;;20.23;9.05;;;5.70;1.00;;;;;;5076917;28;21008;-54
2024/02/29 08:47:46;;;;;;;16.40;9.90;;;5.80;1.00;;;;;;5062888;28;20854;-54
2024/02/29 08:50:13;;;;;;;16.83;8.15;;;5.80;1.00;;;;;;5078054;28;20454;-56
2024/02/29 08:52:41;;;;;;;15.17;8.13;;;5.80;1.00;;;;;;5075574;28;20451;-55
2024/02/29 08:55:09;;;;;;;17.67;8.38;;;5.80;1.00;;;;;;5074285;28;21012;-56
2024/02/29 08:57:37;;;;;;;14.93;7.90;;;5.90;1.00;;;;;;5076312;28;20533;-56
2024/02/29 09:00:05;;;;;;;18.33;9.50;;;6.00;1.00;;;;;;5074667;28;20533;-55
2024/02/29 09:02:32;;;;;;;16.17;8.93;;;6.10;1.00;;;;;;5076352;28;20443;-55
2024/02/29 09:04:59;;;;;;;15.93;7.70;;;6.30;1.00;;;;;;5078238;28;20590;-56
2024/02/29 09:07:25;;;;;;;16.88;8.20;;;6.40;1.00;;;;;;5074804;28;20514;-56
2024/02/29 09:09:52;;;;;;;16.83;7.93;;;6.40;1.00;;;;;;5068494;28;20435;-54
2024/02/29 09:12:19;;;;;;;16.10;8.68;;;6.50;1.00;;;;;;5078815;28;20455;-55
2024/02/29 09:14:48;;;;;;;15.70;6.97;;;6.70;1.00;;;;;;5077931;28;20852;-54
2024/02/29 09:17:14;;;;;;;19.20;9.57;;;7.00;1.00;;;;;;5077153;28;20473;-56
2024/02/29 09:19:41;;;;;;;13.82;7.07;;;7.10;99.90;;;;;;5077033;28;20498;-54
2024/02/29 09:22:11;;;;;;;16.97;8.53;;;7.30;1.00;;;;;;5079355;28;20625;-55
2024/02/29 09:24:38;;;;;;;18.38;8.57;;;7.30;1.00;;;;;;5095339;28;20468;-52
2024/02/29 09:27:05;;;;;;;14.90;8.40;;;7.20;99.90;;;;;;5098015;28;20505;-56
2024/02/29 09:29:32;;;;;;;17.75;8.25;;;7.30;99.90;;;;;;5094994;28;20688;-53
2024/02/29 09:32:00;;;;;;;13.18;5.70;;;7.40;4.70;;;;;;5076085;28;20455;-56
2024/02/29 09:34:28;;;;;;;14.70;7.65;;;7.80;99.90;;;;;;5077129;28;20419;-56
2024/02/29 09:36:55;;;;;;;17.52;9.18;;;8.30;99.90;;;;;;5076189;28;20853;-56
2024/02/29 09:39:21;;;;;;;14.15;7.50;;;8.50;1.00;;;;;;5075417;28;20771;-57
2024/02/29 09:41:48;;;;;;;15.68;7.32;;;8.60;16.50;;;;;;5073703;28;20845;-56
2024/02/29 09:44:16;;;;;;;12.35;5.55;;;8.70;99.90;;;;;;5067640;28;20844;-57
2024/02/29 09:46:46;;;;;;;15.70;7.80;;;9.10;99.90;;;;;;5074754;28;20518;-57
2024/02/29 09:49:15;;;;;;;17.27;8.40;;;9.10;99.90;;;;;;5073842;28;20872;-53
2024/02/29 09:51:43;;;;;;;9.98;5.32;;;8.80;1.00;;;;;;5073890;28;20419;-54
2024/02/29 09:54:16;;;;;;;16.92;8.60;;;9.00;99.90;;;;;;5075334;28;20517;-56
2024/02/29 09:56:43;;;;;;;14.97;7.63;;;9.00;1.00;;;;;;5070113;28;20454;-56
2024/02/29 09:59:15;;;;;;;14.57;7.32;;;8.90;1.00;;;;;;5074365;28;20538;-49
2024/02/29 10:01:44;;;;;;;15.63;8.07;;;9.10;1.00;;;;;;5070870;28;20526;-52
2024/02/29 10:04:11;;;;;;;15.98;8.15;;;9.00;1.00;;;;;;5069320;28;20518;-49
2024/02/29 10:06:39;;;;;;;14.17;6.83;;;9.20;1.00;;;;;;5072192;28;20455;-54
2024/02/29 10:09:06;;;;;;;13.25;7.50;;;9.30;1.00;;;;;;5071658;28;21194;-56
2024/02/29 10:11:33;;;;;;;15.23;7.90;;;9.60;99.90;;;;;;5072376;28;20743;-55
2024/02/29 10:14:02;;;;;;;15.48;8.35;;;9.80;99.90;;;;;;5069002;28;20439;-56
2024/02/29 10:16:32;;;;;;;16.50;9.45;;;9.80;1.00;;;;;;5067196;28;20436;-57
2024/02/29 10:19:00;;;;;;;15.70;8.20;;;9.70;1.00;;;;;;5069581;28;20862;-56
2024/02/29 10:21:27;;;;;;;15.15;8.73;;;9.50;1.00;;;;;;5070080;28;20432;-57
2024/02/29 10:23:57;;;;;;;16.17;8.57;;;9.50;1.00;;;;;;5069760;28;20443;-54
2024/02/29 10:26:24;;;;;;;16.70;8.05;;;9.40;1.00;;;;;;5075242;28;20445;-57
2024/02/29 10:29:03;;;;;;;13.90;8.30;;;9.80;46.40;;;;;;5065918;28;20895;-57
2024/02/29 10:31:30;;;;;;;14.93;7.32;;;10.00;1.00;;;;;;5069716;28;20467;-57
2024/02/29 10:33:59;;;;;;;16.23;8.80;;;10.00;1.00;;;;;;5073029;28;20509;-57
2024/02/29 10:36:26;;;;;;;14.45;8.73;;;10.20;1.00;;;;;;5074607;28;20452;-57
2024/02/29 10:39:00;;;;;;;11.15;6.53;;;10.50;1.00;;;;;;5055729;28;20919;-57
2024/02/29 10:41:31;;;;;;;17.45;9.30;;;10.70;1.00;;;;;;5068863;28;20469;-57
2024/02/29 10:44:03;;;;;;;13.23;7.80;;;10.70;99.90;;;;;;5052505;28;20473;-57
2024/02/29 10:46:32;;;;;;;14.40;7.60;;;10.60;99.90;;;;;;5060914;28;20425;-58
2024/02/29 10:49:05;;;;;;;12.73;7.22;;;10.80;99.90;;;;;;5053570;28;20466;-58
2024/02/29 10:51:44;;;;;;;15.45;8.85;;;11.20;99.90;;;;;;5066867;28;20498;-64
2024/02/29 10:54:17;;;;;;;11.18;6.95;;;11.10;99.90;;;;;;5063020;28;20444;-68
2024/02/29 10:56:46;;;;;;;18.08;8.82;;;11.20;99.90;;;;;;5063089;28;20889;-68
2024/02/29 10:59:17;;;;;;;12.75;7.82;;;11.00;99.90;;;;;;5073029;28;20450;-67
2024/02/29 11:01:45;;;;;;;14.55;8.70;;;11.00;99.90;;;;;;5071866;28;20443;-66
2024/02/29 11:04:14;;;;;;;14.30;8.25;;;11.20;99.90;;;;;;5082360;28;20467;-66
2024/02/29 11:06:45;;;;;;;14.93;8.47;;;11.30;99.90;;;;;;5086364;28;20435;-67
2024/02/29 11:09:14;;;;;;;12.48;6.40;;;11.50;99.90;;;;;;5073838;28;20443;-64
2024/02/29 11:11:42;;;;;;;13.90;7.63;;;11.90;99.90;;;;;;5070370;28;20435;-64
2024/02/29 11:14:13;;;;;;;13.60;6.65;;;12.30;99.90;;;;;;5063547;28;20846;-64
2024/02/29 11:16:45;;;;;;;10.57;6.32;;;12.60;99.90;;;;;;5070941;28;20638;-64
2024/02/29 11:19:15;;;;;;;12.70;5.93;;;13.00;73.40;;;;;;5069321;28;20489;-64
2024/02/29 11:21:46;;;;;;;10.23;6.23;;;13.50;23.00;;;;;;5069621;28;20700;-64
2024/02/29 11:24:18;;;;;;;11.15;6.85;;;13.60;1.00;;;;;;5071358;28;20467;-63
2024/02/29 11:26:45;;;;;;;10.82;6.80;;;13.30;1.00;;;;;;5075984;28;20460;-63
2024/02/29 11:29:15;;;;;;;11.90;6.20;;;13.30;1.00;;;;;;5067612;28;20512;-63
2024/02/29 11:31:44;;;;;;;12.45;6.25;;;13.00;1.00;;;;;;5065407;28;20437;-63
2024/02/29 11:34:11;;;;;;;9.32;4.57;;;12.80;1.00;;;;;;5066698;28;20442;-63
2024/02/29 11:36:39;;;;;;;11.55;6.55;;;12.80;1.00;;;;;;5072020;28;20439;-63
2024/02/29 11:39:09;;;;;;;12.98;6.50;;;12.90;1.00;;;;;;5073155;28;20479;-63
2024/02/29 11:41:36;;;;;;;13.20;6.85;;;12.70;1.00;;;;;;5074471;28;20844;-62
2024/02/29 11:44:04;;;;;;;10.30;5.00;;;12.40;1.00;;;;;;5074857;28;20549;-63
2024/02/29 11:46:32;;;;;;;12.63;6.60;;;12.60;1.00;;;;;;5075113;28;20556;-63
2024/02/29 11:48:59;;;;;;;9.57;5.65;;;12.60;1.00;;;;;;5064708;28;20534;-63
2024/02/29 11:51:28;;;;;;;9.98;5.45;;;12.60;1.00;;;;;;5064126;28;20524;-63
2024/02/29 11:53:55;;;;;;;11.13;5.10;;;12.80;1.00;;;;;;5087048;28;20461;-63
2024/02/29 11:56:22;;;;;;;8.50;5.43;;;12.70;1.00;;;;;;5074044;28;20423;-63
2024/02/29 11:58:49;;;;;;;10.25;5.30;;;12.50;1.00;;;;;;5069532;28;20883;-63
2024/02/29 12:01:16;;;;;;;11.00;4.97;;;12.60;1.00;;;;;;5068237;28;20530;-63
2024/02/29 12:03:45;;;;;;;9.32;4.97;;;12.90;1.00;;;;;;5070560;28;20534;-63
2024/02/29 12:06:12;;;;;;;9.98;4.70;;;13.10;1.00;;;;;;5072008;28;20493;-62
2024/02/29 12:08:40;;;;;;;11.60;4.90;;;13.20;1.00;;;;;;5070996;28;20530;-60
2024/02/29 12:11:10;;;;;;;10.48;5.55;;;13.30;1.00;;;;;;5066646;28;20960;-60
2024/02/29 12:13:40;;;;;;;8.07;4.50;;;13.30;1.00;;;;;;5070524;28;20469;-61
2024/02/29 12:16:10;;;;;;;7.43;4.40;;;13.50;1.00;;;;;;5080198;28;20534;-60
2024/02/29 12:18:38;;;;;;;7.00;3.60;;;13.30;1.00;;;;;;5076181;28;20446;-60
2024/02/29 12:21:09;;;;;;;7.18;3.20;;;13.20;1.00;;;;;;5074020;28;20474;-61
2024/02/29 12:23:35;;;;;;;8.07;3.10;;;13.00;1.00;;;;;;5072335;28;20499;-60
2024/02/29 12:26:10;;;;;;;9.95;4.63;;;13.40;1.00;;;;;;5075959;28;20740;-61
2024/02/29 12:28:37;;;;;;;7.28;3.50;;;13.70;1.00;;;;;;5072115;28;20420;-61
2024/02/29 12:31:06;;;;;;;3.95;1.92;;;13.70;1.00;;;;;;5064971;28;20428;-61
2024/02/29 12:33:33;;;;;;;5.50;2.53;;;14.00;1.00;;;;;;5063894;28;20776;-60
2024/02/29 12:36:01;;;;;;;5.75;2.78;;;14.50;1.00;;;;;;5064762;28;20455;-60
2024/02/29 12:38:32;;;;;;;5.80;3.25;;;14.60;1.00;;;;;;5069264;28;20470;-60
2024/02/29 12:41:00;;;;;;;8.80;3.00;;;14.60;1.00;;;;;;5072049;28;20534;-60
2024/02/29 12:43:28;;;;;;;7.90;3.00;;;14.80;1.00;;;;;;5066645;28;20432;-59
2024/02/29 12:45:56;;;;;;;7.90;3.38;;;14.60;1.00;;;;;;5053453;28;21052;-61
2024/02/29 12:48:24;;;;;;;4.70;2.13;;;14.40;1.00;;;;;;5061179;28;20447;-60
2024/02/29 12:50:51;;;;;;;5.15;2.78;;;14.10;1.00;;;;;;5060386;28;20467;-61